createdAt,value
2022-10-20T18:19:32.282Z,21.10
2022-10-20T18:22:00.122Z,20.70
2022-10-20T18:24:27.610Z,20.70
2022-10-20T18:26:55.405Z,20.80
2022-10-20T18:29:25.479Z,20.90
2022-10-20T18:31:54.528Z,21.00
2022-10-20T18:34:22.334Z,21.10
2022-10-20T18:36:52.662Z,21.10
2022-10-20T18:39:22.703Z,21.20
2022-10-20T18:41:54.773Z,21.30
2022-10-20T18:44:23.964Z,21.30
2022-10-20T18:46:55.023Z,21.40
2022-10-20T18:49:28.234Z,21.40
2022-10-20T18:51:56.134Z,21.40
2022-10-20T18:54:24.784Z,21.40
2022-10-20T18:56:54.216Z,21.40
2022-10-20T18:59:23.212Z,21.50
2022-10-20T19:01:51.285Z,21.50
2022-10-20T19:04:21.744Z,21.50
2022-10-20T19:06:53.441Z,21.50
2022-10-20T19:09:22.417Z,21.40
2022-10-20T19:14:25.585Z,21.40
2022-10-20T19:17:40.766Z,21.40
2022-10-20T19:19:25.924Z,21.40
2022-10-20T19:21:56.719Z,21.30
2022-10-20T19:24:25.329Z,21.30
2022-10-20T19:27:25.070Z,21.30
2022-10-20T19:29:25.434Z,21.20
2022-10-20T19:31:56.819Z,21.20
2022-10-20T19:34:28.525Z,21.20
2022-10-20T19:36:56.773Z,21.20
2022-10-20T19:39:28.305Z,21.20
2022-10-20T19:41:57.521Z,21.20
2022-10-20T19:44:26.593Z,21.20
2022-10-20T19:46:54.711Z,21.20
2022-10-20T19:49:24.195Z,21.20
2022-10-20T19:51:56.294Z,21.20
2022-10-20T19:54:48.299Z,21.20
2022-10-20T19:57:15.960Z,21.20
2022-10-20T19:59:43.718Z,21.10
2022-10-20T20:02:13.111Z,21.20
2022-10-20T20:04:41.313Z,21.10
2022-10-20T20:07:12.239Z,21.10
2022-10-20T20:09:39.608Z,21.10
2022-10-20T20:12:07.456Z,21.00
2022-10-20T20:14:35.262Z,21.00
2022-10-20T20:17:07.372Z,21.00
2022-10-20T20:19:33.571Z,21.00
2022-10-20T20:22:01.354Z,21.00
2022-10-20T20:24:28.913Z,21.00
2022-10-20T20:26:57.368Z,21.00
2022-10-20T20:29:27.492Z,21.00
2022-10-20T20:31:55.693Z,21.00
2022-10-20T20:34:23.865Z,21.00
2022-10-20T20:36:51.752Z,20.90
2022-10-20T20:39:19.816Z,20.90
2022-10-20T20:41:49.190Z,20.90
2022-10-20T20:44:17.411Z,20.90
2022-10-20T20:46:47.729Z,20.80
2022-10-20T20:49:15.464Z,20.80
2022-10-20T20:51:42.758Z,20.80
2022-10-20T20:54:11.298Z,20.80
2022-10-20T20:56:39.005Z,20.70
2022-10-20T20:59:06.964Z,20.70
2022-10-20T21:01:35.125Z,20.70
2022-10-20T21:04:05.535Z,20.70
2022-10-20T21:06:43.415Z,20.70
2022-10-20T21:09:02.858Z,20.70
2022-10-20T21:11:30.568Z,20.70
2022-10-20T21:14:00.304Z,20.70
2022-10-20T21:16:31.827Z,20.70
2022-10-20T21:19:02.680Z,20.60
2022-10-20T21:21:37.678Z,20.60
2022-10-20T21:24:12.981Z,20.60
2022-10-20T21:26:39.270Z,20.60
2022-10-20T21:29:07.155Z,20.60
2022-10-20T21:31:34.802Z,20.60
2022-10-20T21:34:05.437Z,20.50
2022-10-20T21:36:37.337Z,20.50
2022-10-20T21:39:07.935Z,20.40
2022-10-20T21:41:37.122Z,20.40
2022-10-20T21:44:06.752Z,20.40
2022-10-20T21:46:40.533Z,20.40
2022-10-20T21:49:13.419Z,20.40
2022-10-20T21:51:44.258Z,20.40
2022-10-20T21:54:16.430Z,20.40
2022-10-20T21:56:45.930Z,20.40
2022-10-20T21:59:22.676Z,20.40
2022-10-20T22:01:51.897Z,20.30
2022-10-20T22:04:21.454Z,20.30
2022-10-20T22:06:49.285Z,20.30
2022-10-20T22:09:17.624Z,20.30
2022-10-20T22:11:48.729Z,20.30
2022-10-20T22:14:18.111Z,20.20
2022-10-20T22:16:45.741Z,20.20
2022-10-20T22:19:19.764Z,20.20
2022-10-20T22:21:49.002Z,20.20
2022-10-20T22:24:18.951Z,20.20
2022-10-20T22:26:49.282Z,20.10
2022-10-20T22:29:16.866Z,20.10
2022-10-20T22:31:44.767Z,20.20
2022-10-20T22:34:13.062Z,20.10
2022-10-20T22:36:40.976Z,20.10
2022-10-20T22:39:09.825Z,20.20
2022-10-20T22:41:37.222Z,20.10
2022-10-20T22:44:05.706Z,20.10
2022-10-20T22:46:33.755Z,20.10
2022-10-20T22:49:01.375Z,20.10
2022-10-20T22:51:29.304Z,20.10
2022-10-20T22:53:59.481Z,20.00
2022-10-20T22:56:27.700Z,20.10
2022-10-20T22:58:55.748Z,20.10
2022-10-20T23:01:24.572Z,20.00
2022-10-20T23:03:55.410Z,20.00
2022-10-20T23:06:26.389Z,20.00
2022-10-20T23:08:57.457Z,20.00
2022-10-20T23:11:25.345Z,20.00
2022-10-20T23:13:53.213Z,20.00
2022-10-20T23:16:21.542Z,20.00
2022-10-20T23:18:59.896Z,20.00
2022-10-20T23:21:27.470Z,20.00
2022-10-20T23:23:55.433Z,20.10
2022-10-20T23:26:23.131Z,20.00
2022-10-20T23:28:50.857Z,20.00
2022-10-20T23:31:21.082Z,20.00
2022-10-20T23:33:54.679Z,20.00
2022-10-20T23:36:23.682Z,20.10
2022-10-20T23:38:51.437Z,20.00
2022-10-20T23:41:19.537Z,20.00
2022-10-20T23:43:47.885Z,20.00
2022-10-20T23:46:16.371Z,20.10
2022-10-20T23:48:43.948Z,20.10
2022-10-20T23:51:11.899Z,20.10
2022-10-20T23:53:39.765Z,20.10
2022-10-20T23:56:10.948Z,20.00
2022-10-20T23:58:38.465Z,20.10
